Time;durP1;ratioP1;P1;durP2;ratioP2;P2;SDS_P1;SDS_P2;PMS_P1;PMS_P2;Temp;Humidity;BMP_temperature;BMP_pressure;BME280_temperature;BME280_humidity;BME280_pressure;Samples;Min_cycle;Max_cycle;Signal;HPM_P1;HPM_P2
2023/02/23 00:01:53;;;;;;;28.20;17.13;;;8.80;99.90;;;;;;466319;253;27729;-81
2023/02/23 00:03:55;;;;;;;24.90;16.17;;;8.80;99.90;;;;;;466195;255;28062;-81
2023/02/23 00:05:56;;;;;;;20.27;13.20;;;8.80;99.90;;;;;;466186;255;27796;-81
2023/02/23 00:07:57;;;;;;;19.83;13.30;;;8.80;99.90;;;;;;466154;255;28076;-81
2023/02/23 00:10:00;;;;;;;18.50;13.80;;;8.80;99.90;;;;;;466169;253;27981;-81
2023/02/23 00:12:02;;;;;;;24.80;15.90;;;8.80;99.90;;;;;;466157;255;27993;-80
2023/02/23 00:14:02;;;;;;;20.90;12.83;;;8.80;99.90;;;;;;465891;250;28589;-81
2023/02/23 00:16:02;;;;;;;20.80;13.77;;;8.90;99.90;;;;;;466337;253;28428;-80
2023/02/23 00:18:03;;;;;;;22.40;14.47;;;8.80;99.90;;;;;;466158;255;28245;-80
2023/02/23 00:20:10;;;;;;;30.60;17.77;;;8.80;99.90;;;;;;466184;255;28074;-81
2023/02/23 00:22:09;;;;;;;22.10;14.90;;;8.80;99.90;;;;;;466188;253;27890;-81
2023/02/23 00:24:10;;;;;;;25.80;14.03;;;8.80;99.90;;;;;;466134;255;28095;-80
2023/02/23 00:26:12;;;;;;;23.00;15.87;;;8.80;99.90;;;;;;466213;254;28662;-81
2023/02/23 00:28:12;;;;;;;19.83;13.30;;;8.80;99.90;;;;;;466162;255;28123;-80
2023/02/23 00:30:14;;;;;;;22.10;13.73;;;8.80;99.90;;;;;;466085;255;27810;-80
2023/02/23 00:32:18;;;;;;;23.80;14.43;;;8.80;99.90;;;;;;466171;255;28087;-80
2023/02/23 00:34:22;;;;;;;26.60;17.37;;;8.80;99.90;;;;;;465986;255;27956;-81
2023/02/23 00:36:20;;;;;;;23.63;15.00;;;8.90;99.90;;;;;;466047;255;28171;-81
2023/02/23 00:38:22;;;;;;;20.83;14.60;;;8.90;99.90;;;;;;466000;255;28405;-80
2023/02/23 00:40:23;;;;;;;26.63;15.50;;;8.80;99.90;;;;;;466431;253;28137;-80
2023/02/23 00:42:31;;;;;;;20.73;13.90;;;8.90;99.90;;;;;;466038;255;28558;-80
2023/02/23 00:44:25;;;;;;;20.67;14.53;;;8.90;99.90;;;;;;466152;255;27658;-80
2023/02/23 00:46:27;;;;;;;20.87;13.90;;;8.90;99.90;;;;;;466160;255;28144;-80
2023/02/23 00:48:28;;;;;;;22.13;14.40;;;8.90;99.90;;;;;;466234;253;27850;-81
2023/02/23 00:50:29;;;;;;;17.33;12.07;;;8.90;99.90;;;;;;466201;255;28195;-80
2023/02/23 00:52:31;;;;;;;21.50;14.70;;;8.90;99.90;;;;;;465924;255;28077;-80
2023/02/23 00:54:32;;;;;;;21.10;12.60;;;8.90;99.90;;;;;;466132;255;28125;-80
2023/02/23 00:56:33;;;;;;;22.50;15.40;;;8.90;99.90;;;;;;466140;255;28170;-80
2023/02/23 00:58:34;;;;;;;17.43;12.20;;;8.90;99.90;;;;;;466180;255;28084;-81
2023/02/23 01:00:41;;;;;;;18.57;12.90;;;8.90;99.90;;;;;;466180;255;28488;-80
2023/02/23 01:02:37;;;;;;;17.10;12.10;;;8.90;99.90;;;;;;466164;255;28071;-80
2023/02/23 01:04:38;;;;;;;19.77;11.97;;;8.90;99.90;;;;;;466191;255;28030;-80
2023/02/23 01:06:40;;;;;;;18.27;12.37;;;8.90;99.90;;;;;;466174;255;28269;-81
2023/02/23 01:08:40;;;;;;;14.63;10.30;;;8.90;99.90;;;;;;466189;255;28104;-81
2023/02/23 01:10:42;;;;;;;14.83;10.33;;;8.90;99.90;;;;;;466203;255;27787;-80
2023/02/23 01:12:43;;;;;;;16.03;12.07;;;8.90;99.90;;;;;;466200;255;27594;-81
2023/02/23 01:14:46;;;;;;;19.20;12.37;;;8.90;99.90;;;;;;466217;253;28637;-81
2023/02/23 01:16:45;;;;;;;18.30;11.80;;;8.90;99.90;;;;;;466188;255;28162;-81
2023/02/23 01:18:47;;;;;;;17.73;12.50;;;8.90;99.90;;;;;;465987;254;28258;-81
2023/02/23 01:20:49;;;;;;;22.37;13.13;;;8.80;99.90;;;;;;466187;255;28253;-80
2023/02/23 01:22:50;;;;;;;13.57;10.40;;;8.80;99.90;;;;;;466195;255;28066;-81
2023/02/23 01:24:50;;;;;;;15.23;10.37;;;8.80;99.90;;;;;;466217;255;27659;-80
2023/02/23 01:26:52;;;;;;;15.80;10.20;;;8.80;99.90;;;;;;466233;255;28123;-81
2023/02/23 01:28:53;;;;;;;13.13;9.73;;;8.80;99.90;;;;;;466231;255;27986;-81
2023/02/23 01:30:54;;;;;;;16.67;11.03;;;8.90;99.90;;;;;;466175;255;28152;-80
2023/02/23 01:32:56;;;;;;;14.10;10.40;;;8.90;99.90;;;;;;466206;255;28505;-80
2023/02/23 01:34:57;;;;;;;13.40;9.83;;;8.90;99.90;;;;;;466201;255;28390;-80
2023/02/23 01:36:58;;;;;;;19.37;12.87;;;8.80;99.90;;;;;;466081;255;28343;-80
2023/02/23 01:38:59;;;;;;;14.03;10.43;;;8.80;99.90;;;;;;466206;255;28086;-80
2023/02/23 01:41:01;;;;;;;19.90;12.73;;;8.90;99.90;;;;;;466186;255;28021;-81
2023/02/23 01:43:02;;;;;;;15.83;11.70;;;8.80;99.90;;;;;;466114;255;28090;-80
2023/02/23 01:45:03;;;;;;;16.93;11.10;;;8.90;99.90;;;;;;466186;255;28006;-81
2023/02/23 01:47:04;;;;;;;22.17;13.80;;;8.80;99.90;;;;;;466170;255;28059;-80
2023/02/23 01:49:06;;;;;;;12.80;9.40;;;8.80;99.90;;;;;;466181;255;28027;-81
2023/02/23 01:51:07;;;;;;;14.00;10.23;;;8.80;99.90;;;;;;466182;255;28022;-80
2023/02/23 01:53:08;;;;;;;19.70;11.10;;;8.80;99.90;;;;;;466180;255;28532;-81
2023/02/23 01:55:11;;;;;;;15.00;10.77;;;8.80;99.90;;;;;;466085;255;28046;-80
2023/02/23 01:57:11;;;;;;;14.13;10.00;;;8.80;99.90;;;;;;466147;255;28652;-80
2023/02/23 01:59:12;;;;;;;15.97;10.20;;;8.80;99.90;;;;;;466211;255;27590;-80
2023/02/23 02:01:13;;;;;;;16.73;11.27;;;8.80;99.90;;;;;;466203;253;28040;-80
2023/02/23 02:03:14;;;;;;;14.57;10.63;;;8.80;99.90;;;;;;466276;253;27796;-80
2023/02/23 02:05:17;;;;;;;15.00;11.00;;;8.80;99.90;;;;;;466158;255;28010;-80
2023/02/23 02:07:17;;;;;;;16.73;11.60;;;8.80;99.90;;;;;;466169;255;28027;-80
2023/02/23 02:09:18;;;;;;;14.50;10.43;;;8.80;99.90;;;;;;466102;255;28175;-81
2023/02/23 02:11:29;;;;;;;14.23;11.43;;;8.80;99.90;;;;;;466139;255;28573;-80
2023/02/23 02:13:26;;;;;;;13.43;9.83;;;8.80;99.90;;;;;;466195;254;28015;-79
2023/02/23 02:15:28;;;;;;;16.33;10.93;;;8.80;99.90;;;;;;466206;255;27771;-81
2023/02/23 02:17:29;;;;;;;16.33;10.57;;;8.80;99.90;;;;;;466215;255;28994;-80
2023/02/23 02:19:30;;;;;;;14.67;10.10;;;8.80;99.90;;;;;;466205;255;28506;-81
2023/02/23 02:21:34;;;;;;;12.90;9.00;;;8.80;99.90;;;;;;466149;255;28621;-80
2023/02/23 02:23:33;;;;;;;15.00;10.80;;;8.80;99.90;;;;;;466217;255;27957;-80
2023/02/23 02:25:34;;;;;;;14.07;9.67;;;8.80;99.90;;;;;;466173;255;27998;-81
2023/02/23 02:27:35;;;;;;;14.63;11.23;;;8.80;99.90;;;;;;466199;255;27957;-81
2023/02/23 02:29:36;;;;;;;13.83;9.83;;;8.80;99.90;;;;;;466185;255;27537;-80
2023/02/23 02:31:38;;;;;;;13.50;10.03;;;8.80;99.90;;;;;;466318;253;28072;-81
2023/02/23 02:33:42;;;;;;;14.87;10.33;;;8.80;99.90;;;;;;466207;255;28148;-81
2023/02/23 02:35:40;;;;;;;14.00;9.70;;;8.80;99.90;;;;;;466216;255;28194;-80
2023/02/23 02:37:41;;;;;;;16.50;11.43;;;8.70;99.90;;;;;;466155;255;28450;-81
2023/02/23 02:39:45;;;;;;;21.07;13.60;;;8.70;99.90;;;;;;466196;255;29331;-80
2023/02/23 02:41:44;;;;;;;15.20;11.17;;;8.80;99.90;;;;;;466143;255;28229;-80
2023/02/23 02:43:45;;;;;;;23.93;15.57;;;8.80;99.90;;;;;;466262;255;27973;-79
2023/02/23 02:45:46;;;;;;;19.30;13.20;;;8.70;99.90;;;;;;466086;255;28132;-80
2023/02/23 02:47:49;;;;;;;15.90;10.60;;;8.70;99.90;;;;;;466212;255;28073;-80
2023/02/23 02:49:49;;;;;;;16.80;12.37;;;8.70;99.90;;;;;;466236;255;27796;-81
2023/02/23 02:51:50;;;;;;;16.00;10.40;;;8.70;99.90;;;;;;466220;253;28153;-80
2023/02/23 02:53:51;;;;;;;21.20;14.30;;;8.70;99.90;;;;;;466198;255;28057;-80
2023/02/23 02:55:54;;;;;;;25.60;14.77;;;8.70;99.90;;;;;;466173;255;28542;-80
2023/02/23 02:57:55;;;;;;;14.67;10.80;;;8.70;99.90;;;;;;466093;255;28521;-81
2023/02/23 04:18:22;;;;;;;22.57;16.03;;;8.60;99.90;;;;;;466223;255;27469;-79
2023/02/23 04:20:24;;;;;;;35.27;19.10;;;8.50;99.90;;;;;;466175;255;27656;-80
2023/02/23 04:22:25;;;;;;;27.27;16.80;;;8.50;99.90;;;;;;466223;253;28031;-79
2023/02/23 04:24:26;;;;;;;29.00;18.70;;;8.50;99.90;;;;;;465823;255;28070;-80
2023/02/23 04:26:27;;;;;;;33.20;20.07;;;8.50;99.90;;;;;;465389;255;28558;-81
2023/02/23 04:28:28;;;;;;;30.87;19.80;;;8.60;99.90;;;;;;465799;255;27659;-79
2023/02/23 04:30:30;;;;;;;25.13;15.00;;;8.60;99.90;;;;;;466172;255;28572;-79
2023/02/23 04:32:31;;;;;;;24.27;16.63;;;8.50;99.90;;;;;;466371;253;28504;-81
2023/02/23 04:34:32;;;;;;;47.53;23.20;;;8.50;99.90;;;;;;466153;255;28196;-80
2023/02/23 04:36:33;;;;;;;28.97;18.63;;;8.50;99.90;;;;;;466181;255;27834;-80
2023/02/23 04:38:35;;;;;;;24.97;16.70;;;8.50;99.90;;;;;;466179;255;28051;-81
2023/02/23 04:40:36;;;;;;;48.93;25.47;;;8.50;99.90;;;;;;466179;255;28116;-80
2023/02/23 04:42:37;;;;;;;32.00;18.57;;;8.50;99.90;;;;;;466262;253;27651;-80
2023/02/23 04:44:38;;;;;;;44.63;23.53;;;8.50;99.90;;;;;;466121;255;28095;-80
2023/02/23 04:46:40;;;;;;;48.40;24.70;;;8.50;99.90;;;;;;465983;255;27957;-80
2023/02/23 04:48:41;;;;;;;37.33;23.10;;;8.40;99.90;;;;;;466150;255;28346;-80
2023/02/23 04:50:42;;;;;;;37.63;21.80;;;8.40;99.90;;;;;;466178;255;28665;-80
2023/02/23 04:52:44;;;;;;;30.33;20.47;;;8.40;99.90;;;;;;466668;253;27565;-80
2023/02/23 04:54:45;;;;;;;31.60;19.70;;;8.40;99.90;;;;;;466008;255;28067;-80
2023/02/23 04:56:46;;;;;;;28.60;18.10;;;8.40;99.90;;;;;;466409;255;27997;-81
2023/02/23 04:58:47;;;;;;;27.33;17.80;;;8.50;99.90;;;;;;466490;255;27978;-82
2023/02/23 05:00:49;;;;;;;26.83;17.80;;;8.50;99.90;;;;;;466331;255;28066;-80
2023/02/23 05:02:50;;;;;;;28.23;17.63;;;8.50;99.90;;;;;;466320;255;28113;-80
2023/02/23 05:04:51;;;;;;;27.07;17.57;;;8.50;99.90;;;;;;466287;255;28044;-80
2023/02/23 05:06:52;;;;;;;27.33;18.33;;;8.50;99.90;;;;;;466242;255;28702;-80
2023/02/23 05:08:54;;;;;;;24.30;16.73;;;8.50;99.90;;;;;;466228;255;28428;-80
2023/02/23 05:10:55;;;;;;;24.97;16.50;;;8.40;99.90;;;;;;466201;255;28082;-81
2023/02/23 05:12:56;;;;;;;27.90;18.77;;;8.50;99.90;;;;;;466219;255;27936;-81
2023/02/23 05:14:58;;;;;;;22.27;14.47;;;8.50;99.90;;;;;;466199;255;27740;-81
2023/02/23 05:16:59;;;;;;;26.13;17.03;;;8.50;99.90;;;;;;466039;255;28000;-79
2023/02/23 05:19:00;;;;;;;27.23;17.63;;;8.40;99.90;;;;;;466040;255;27728;-80
2023/02/23 05:21:01;;;;;;;25.53;16.00;;;8.50;99.90;;;;;;466202;255;28228;-81
2023/02/23 05:23:03;;;;;;;25.10;15.90;;;8.40;99.90;;;;;;466125;255;28027;-80
2023/02/23 05:25:04;;;;;;;30.60;16.30;;;8.50;99.90;;;;;;466156;255;28744;-80
2023/02/23 05:27:05;;;;;;;24.77;16.53;;;8.50;99.90;;;;;;466246;254;28472;-81
2023/02/23 05:29:06;;;;;;;24.63;16.30;;;8.50;99.90;;;;;;466210;255;28158;-80
2023/02/23 05:31:07;;;;;;;26.33;14.90;;;8.50;99.90;;;;;;466295;253;27955;-80
2023/02/23 05:33:09;;;;;;;24.13;14.87;;;8.50;99.90;;;;;;466057;255;27882;-81
2023/02/23 05:35:11;;;;;;;22.57;15.93;;;8.50;99.90;;;;;;466205;255;28069;-80
2023/02/23 05:37:11;;;;;;;26.10;16.30;;;8.50;99.90;;;;;;466062;255;27888;-81
2023/02/23 05:39:12;;;;;;;26.60;16.13;;;8.40;99.90;;;;;;466169;255;27943;-80
2023/02/23 05:41:14;;;;;;;25.37;16.17;;;8.40;99.90;;;;;;466119;255;28037;-80
2023/02/23 05:43:15;;;;;;;22.63;15.93;;;8.40;99.90;;;;;;466109;255;28483;-81
2023/02/23 05:45:16;;;;;;;26.10;16.20;;;8.40;99.90;;;;;;465920;255;28621;-80
2023/02/23 05:47:17;;;;;;;28.20;16.47;;;8.40;99.90;;;;;;466189;255;27532;-80
2023/02/23 05:49:19;;;;;;;21.80;15.17;;;8.30;99.90;;;;;;466208;255;27937;-80
2023/02/23 05:51:20;;;;;;;27.70;16.47;;;8.30;99.90;;;;;;466252;255;28067;-80
2023/02/23 05:53:21;;;;;;;27.80;15.60;;;8.20;99.90;;;;;;466246;255;28073;-81
2023/02/23 05:55:23;;;;;;;23.93;15.47;;;8.10;99.90;;;;;;466234;255;28166;-80
2023/02/23 05:57:24;;;;;;;29.23;16.60;;;8.10;99.90;;;;;;466135;255;28056;-80
2023/02/23 05:59:25;;;;;;;26.17;16.87;;;8.20;99.90;;;;;;466235;253;27832;-81
2023/02/23 06:01:26;;;;;;;25.50;15.80;;;8.20;99.90;;;;;;466187;255;28165;-81
2023/02/23 06:03:27;;;;;;;25.80;17.23;;;8.20;99.90;;;;;;466225;255;28375;-81
2023/02/23 06:05:29;;;;;;;29.03;17.43;;;8.20;99.90;;;;;;466163;255;28207;-79
2023/02/23 06:07:30;;;;;;;28.20;17.90;;;8.20;99.90;;;;;;466201;255;28146;-80
2023/02/23 06:09:31;;;;;;;34.47;20.30;;;8.20;99.90;;;;;;466123;255;27984;-80
2023/02/23 06:11:32;;;;;;;29.37;18.17;;;8.20;99.90;;;;;;466166;255;28310;-80
2023/02/23 06:13:34;;;;;;;30.27;18.07;;;8.20;99.90;;;;;;466195;255;27906;-80
2023/02/23 06:15:36;;;;;;;27.20;16.70;;;8.20;99.90;;;;;;466176;255;27941;-80
2023/02/23 06:17:36;;;;;;;32.30;19.53;;;8.20;99.90;;;;;;466170;255;27909;-80
2023/02/23 06:19:37;;;;;;;27.77;17.30;;;8.20;99.90;;;;;;466183;255;28640;-81
2023/02/23 06:21:39;;;;;;;27.90;17.63;;;8.20;99.90;;;;;;466184;255;28563;-80
2023/02/23 06:23:40;;;;;;;33.10;18.60;;;8.20;99.90;;;;;;466198;255;28097;-81
2023/02/23 06:25:41;;;;;;;30.33;18.80;;;8.20;99.90;;;;;;466546;253;28016;-80
2023/02/23 06:27:44;;;;;;;31.37;19.27;;;8.20;99.90;;;;;;466224;253;28142;-80
2023/02/23 06:29:44;;;;;;;29.80;18.43;;;8.20;99.90;;;;;;466171;255;27762;-81
2023/02/23 06:31:45;;;;;;;33.10;17.57;;;8.20;99.90;;;;;;466232;255;27923;-79
2023/02/23 06:33:47;;;;;;;29.23;18.07;;;8.20;99.90;;;;;;466198;255;28044;-80
2023/02/23 06:35:48;;;;;;;30.73;19.07;;;8.20;99.90;;;;;;466442;253;27912;-81
2023/02/23 06:37:49;;;;;;;32.70;19.00;;;8.20;99.90;;;;;;466296;253;28504;-79
2023/02/23 06:39:50;;;;;;;34.20;19.70;;;8.20;99.90;;;;;;466193;255;28562;-80
2023/02/23 06:41:51;;;;;;;29.77;18.90;;;8.20;99.90;;;;;;466191;255;28190;-80
2023/02/23 06:43:53;;;;;;;28.80;17.10;;;8.20;99.90;;;;;;466174;255;28111;-80
2023/02/23 06:45:54;;;;;;;34.33;19.70;;;8.20;99.90;;;;;;466112;255;28153;-80
2023/02/23 06:47:55;;;;;;;41.00;21.30;;;8.20;99.90;;;;;;466183;255;28148;-80
2023/02/23 06:49:58;;;;;;;36.57;21.47;;;8.20;99.90;;;;;;466198;253;28207;-81
2023/02/23 06:51:58;;;;;;;33.63;21.13;;;8.20;99.90;;;;;;466107;255;28152;-80
2023/02/23 06:53:59;;;;;;;38.93;22.67;;;8.20;99.90;;;;;;466213;255;28124;-79
2023/02/23 06:56:00;;;;;;;36.50;22.57;;;8.20;99.90;;;;;;466187;255;28330;-80
2023/02/23 06:58:02;;;;;;;41.77;25.40;;;8.20;99.90;;;;;;466229;253;28372;-80
2023/02/23 07:00:03;;;;;;;38.53;22.70;;;8.30;99.90;;;;;;466147;255;27981;-81
2023/02/23 07:02:04;;;;;;;43.40;24.13;;;8.30;99.90;;;;;;466103;255;28099;-80
2023/02/23 07:04:05;;;;;;;38.50;22.97;;;8.30;99.90;;;;;;466200;255;27977;-81
2023/02/23 07:06:06;;;;;;;43.07;25.50;;;8.30;99.90;;;;;;466155;255;27692;-80
2023/02/23 07:08:08;;;;;;;40.83;24.43;;;8.30;99.90;;;;;;466006;255;27917;-80
2023/02/23 07:10:09;;;;;;;35.13;21.47;;;8.30;99.90;;;;;;466194;255;27978;-79
2023/02/23 07:12:10;;;;;;;43.90;23.80;;;8.30;99.90;;;;;;466197;255;28058;-81
2023/02/23 07:14:11;;;;;;;41.00;22.20;;;8.30;99.90;;;;;;466205;255;28480;-79
2023/02/23 07:16:15;;;;;;;41.50;24.40;;;8.30;99.90;;;;;;466176;255;28272;-80
2023/02/23 07:18:15;;;;;;;40.43;22.97;;;8.30;99.90;;;;;;466155;255;28077;-80
2023/02/23 07:20:15;;;;;;;47.90;27.20;;;8.30;99.90;;;;;;466224;255;28033;-80
2023/02/23 07:22:16;;;;;;;53.73;29.10;;;8.20;99.90;;;;;;466217;255;27854;-81
2023/02/23 07:24:18;;;;;;;43.00;23.53;;;8.20;99.90;;;;;;466254;255;28116;-80
2023/02/23 07:26:19;;;;;;;42.60;24.73;;;8.10;99.90;;;;;;466216;255;27914;-80
2023/02/23 07:28:20;;;;;;;38.67;22.97;;;8.10;99.90;;;;;;466140;255;28432;-80
2023/02/23 07:30:24;;;;;;;37.90;23.60;;;8.10;99.90;;;;;;466247;255;28055;-80
2023/02/23 07:32:26;;;;;;;41.23;24.40;;;8.20;99.90;;;;;;466639;253;28061;-81
2023/02/23 07:34:27;;;;;;;35.40;20.33;;;8.30;99.90;;;;;;466198;255;28576;-82
2023/02/23 07:36:28;;;;;;;40.10;23.30;;;8.30;99.90;;;;;;466224;255;28202;-82
2023/02/23 07:38:29;;;;;;;36.07;21.60;;;8.30;99.90;;;;;;466100;255;28664;-80
2023/02/23 07:40:31;;;;;;;41.30;23.73;;;8.30;99.90;;;;;;466233;253;28191;-81
2023/02/23 07:42:32;;;;;;;40.47;22.80;;;8.40;99.90;;;;;;466222;253;27888;-80
2023/02/23 07:44:33;;;;;;;37.97;22.97;;;8.40;99.90;;;;;;466180;255;27960;-82
2023/02/23 07:46:34;;;;;;;55.60;26.87;;;8.40;99.90;;;;;;466189;255;28092;-82
2023/02/23 07:48:36;;;;;;;38.83;22.10;;;8.50;99.90;;;;;;466191;255;28119;-81
2023/02/23 07:50:37;;;;;;;38.77;21.93;;;8.50;99.90;;;;;;466299;253;27972;-82
2023/02/23 07:52:38;;;;;;;47.80;24.30;;;8.50;99.90;;;;;;466189;255;28638;-81
2023/02/23 07:54:39;;;;;;;43.50;24.60;;;8.50;99.90;;;;;;466197;255;28545;-82
2023/02/23 07:56:41;;;;;;;51.97;28.50;;;8.50;99.90;;;;;;466182;255;28197;-82
2023/02/23 07:58:42;;;;;;;45.17;24.03;;;8.50;99.90;;;;;;466199;255;27723;-82
2023/02/23 08:00:43;;;;;;;39.23;22.87;;;8.50;99.90;;;;;;466186;255;28318;-81
2023/02/23 08:02:44;;;;;;;46.50;25.50;;;8.50;99.90;;;;;;466216;255;28032;-81
2023/02/23 08:04:46;;;;;;;43.07;25.17;;;8.60;99.90;;;;;;466221;255;27968;-82
2023/02/23 08:06:47;;;;;;;43.77;25.40;;;8.70;99.90;;;;;;466217;253;28031;-81
2023/02/23 08:08:48;;;;;;;51.33;26.57;;;8.70;99.90;;;;;;466201;255;28142;-82
2023/02/23 08:10:49;;;;;;;40.30;23.30;;;8.70;99.90;;;;;;466166;255;28518;-80
2023/02/23 08:12:51;;;;;;;50.90;27.40;;;8.80;99.90;;;;;;466194;255;28534;-81
2023/02/23 08:14:52;;;;;;;42.50;25.13;;;8.80;99.90;;;;;;466174;255;28514;-81
2023/02/23 08:16:53;;;;;;;47.73;26.83;;;8.80;99.90;;;;;;466174;255;28048;-81
2023/02/23 08:18:54;;;;;;;39.83;22.70;;;8.80;99.90;;;;;;466455;253;28068;-81
2023/02/23 08:20:56;;;;;;;37.87;23.87;;;8.80;99.90;;;;;;466183;255;28170;-83
2023/02/23 08:22:58;;;;;;;40.73;22.70;;;8.90;99.90;;;;;;466260;255;28029;-82
2023/02/23 08:24:58;;;;;;;38.03;22.30;;;9.00;99.90;;;;;;466165;255;28031;-82
2023/02/23 08:26:59;;;;;;;38.80;21.00;;;9.10;99.90;;;;;;466239;255;27971;-82
2023/02/23 08:29:01;;;;;;;38.83;22.67;;;9.10;99.90;;;;;;466219;255;28202;-81
2023/02/23 08:31:02;;;;;;;35.67;23.03;;;9.10;99.90;;;;;;466223;255;28517;-82
2023/02/23 08:33:04;;;;;;;30.43;19.33;;;9.20;99.90;;;;;;466208;255;28358;-81
2023/02/23 08:35:05;;;;;;;33.90;21.60;;;9.20;99.90;;;;;;466174;255;28002;-82
2023/02/23 08:37:06;;;;;;;45.77;23.07;;;9.20;99.90;;;;;;466229;255;28447;-81
2023/02/23 08:39:08;;;;;;;41.17;24.33;;;9.10;99.90;;;;;;466186;255;28048;-81
2023/02/23 08:41:08;;;;;;;35.83;24.03;;;9.00;99.90;;;;;;466212;255;27991;-82
2023/02/23 08:43:10;;;;;;;41.43;24.93;;;9.00;99.90;;;;;;466217;255;28002;-81
2023/02/23 08:45:11;;;;;;;44.47;25.70;;;9.00;99.90;;;;;;466218;255;28305;-81
2023/02/23 08:47:15;;;;;;;41.43;22.50;;;9.00;99.90;;;;;;466224;255;28461;-81
2023/02/23 08:49:13;;;;;;;38.40;24.87;;;8.90;99.90;;;;;;466176;255;28213;-81
2023/02/23 08:51:15;;;;;;;44.30;25.90;;;9.00;99.90;;;;;;466262;255;28485;-81
2023/02/23 08:53:16;;;;;;;46.37;27.07;;;9.00;99.90;;;;;;466212;255;28052;-82
2023/02/23 08:55:19;;;;;;;50.80;29.10;;;8.80;99.90;;;;;;466218;255;28068;-82
2023/02/23 08:57:18;;;;;;;52.60;28.90;;;8.80;99.90;;;;;;466241;255;28136;-81
2023/02/23 08:59:20;;;;;;;51.17;29.37;;;8.80;99.90;;;;;;466587;253;27944;-83
2023/02/23 09:01:21;;;;;;;48.37;26.80;;;8.80;99.90;;;;;;466215;255;28195;-82
2023/02/23 09:03:22;;;;;;;47.97;28.97;;;8.80;99.90;;;;;;466177;255;28048;-81
2023/02/23 09:05:23;;;;;;;51.70;28.07;;;8.80;99.90;;;;;;466096;253;28521;-81
2023/02/23 09:07:25;;;;;;;45.23;27.07;;;8.80;99.90;;;;;;466113;255;29414;-81
2023/02/23 09:09:26;;;;;;;39.60;24.80;;;8.80;99.90;;;;;;466026;255;28482;-83
2023/02/23 09:11:27;;;;;;;46.20;27.17;;;8.80;99.90;;;;;;466215;255;27945;-82
2023/02/23 09:13:28;;;;;;;53.40;27.20;;;8.90;99.90;;;;;;466188;255;28191;-81
2023/02/23 09:15:30;;;;;;;40.37;26.57;;;8.80;99.90;;;;;;466218;255;28142;-82
2023/02/23 09:17:31;;;;;;;48.87;29.57;;;8.90;99.90;;;;;;466142;255;28066;-82
2023/02/23 09:19:32;;;;;;;41.53;25.83;;;8.90;99.90;;;;;;466197;255;28071;-80
2023/02/23 09:21:33;;;;;;;39.67;25.53;;;8.90;99.90;;;;;;466192;255;28087;-81
2023/02/23 09:23:35;;;;;;;45.43;26.13;;;8.90;99.90;;;;;;466205;255;27927;-82
2023/02/23 09:25:36;;;;;;;44.33;27.67;;;9.00;99.90;;;;;;466178;255;28519;-82
2023/02/23 09:27:37;;;;;;;45.35;27.55;;;9.00;99.90;;;;;;465860;255;27202;-82
2023/02/23 09:29:42;;;;;;;41.17;25.30;;;9.10;99.90;;;;;;466206;255;27558;-81
2023/02/23 09:31:42;;;;;;;38.63;25.17;;;9.10;99.90;;;;;;466122;255;27949;-81
2023/02/23 09:33:41;;;;;;;36.70;22.63;;;9.10;99.90;;;;;;466220;255;28279;-82
2023/02/23 09:35:42;;;;;;;42.70;26.23;;;9.10;99.90;;;;;;466257;253;27956;-82
2023/02/23 09:37:45;;;;;;;36.80;24.23;;;9.10;99.90;;;;;;466215;255;28007;-82
2023/02/23 09:39:45;;;;;;;36.80;25.10;;;9.00;99.90;;;;;;466154;255;28031;-82
2023/02/23 09:41:46;;;;;;;34.70;23.73;;;9.00;99.90;;;;;;466206;255;28580;-82
2023/02/23 09:43:47;;;;;;;43.17;25.33;;;9.10;99.90;;;;;;466190;255;28212;-82
2023/02/23 09:45:48;;;;;;;35.93;25.07;;;9.10;99.90;;;;;;466178;255;28551;-82
2023/02/23 09:47:50;;;;;;;34.67;24.60;;;9.00;99.90;;;;;;466224;255;27779;-80
2023/02/23 09:49:51;;;;;;;39.40;24.17;;;9.00;99.90;;;;;;466211;255;28068;-82
2023/02/23 09:51:56;;;;;;;39.50;25.00;;;9.10;99.90;;;;;;466178;255;27727;-81
2023/02/23 09:53:53;;;;;;;32.40;22.10;;;9.00;99.90;;;;;;466213;253;28137;-81
2023/02/23 09:55:56;;;;;;;35.87;25.00;;;9.00;99.90;;;;;;466201;255;28189;-83
2023/02/23 09:57:56;;;;;;;48.60;27.50;;;9.00;99.90;;;;;;466211;255;28098;-82
2023/02/23 09:59:57;;;;;;;34.73;22.63;;;8.90;99.90;;;;;;466211;255;28519;-81
2023/02/23 10:01:59;;;;;;;33.73;22.87;;;8.90;99.90;;;;;;466203;255;28555;-82
2023/02/23 10:04:00;;;;;;;34.67;23.93;;;8.80;99.90;;;;;;466216;255;28369;-81
2023/02/23 10:06:01;;;;;;;36.57;24.20;;;8.80;99.90;;;;;;466216;254;28058;-81
2023/02/23 10:08:02;;;;;;;32.10;22.17;;;8.90;99.90;;;;;;466207;255;27910;-82
2023/02/23 10:10:03;;;;;;;30.53;19.50;;;9.00;99.90;;;;;;466258;255;28033;-81
2023/02/23 10:12:05;;;;;;;25.37;17.80;;;9.00;99.90;;;;;;466113;255;27572;-82
2023/02/23 10:14:06;;;;;;;29.30;18.20;;;9.00;99.90;;;;;;466318;253;28023;-82
2023/02/23 10:16:07;;;;;;;25.93;16.93;;;9.00;99.90;;;;;;466248;255;28023;-82
2023/02/23 10:18:08;;;;;;;25.63;15.73;;;9.10;99.90;;;;;;466195;255;28753;-82
2023/02/23 10:20:10;;;;;;;24.20;16.20;;;9.10;99.90;;;;;;466249;255;28382;-82
2023/02/23 10:22:12;;;;;;;22.83;16.37;;;9.10;99.90;;;;;;466243;255;28577;-82
2023/02/23 10:24:12;;;;;;;26.07;16.47;;;9.10;99.90;;;;;;466213;255;28047;-82
2023/02/23 10:26:14;;;;;;;20.83;15.10;;;9.10;99.90;;;;;;466123;255;27945;-82
2023/02/23 10:28:15;;;;;;;21.70;15.70;;;9.10;99.90;;;;;;465898;255;28519;-82
2023/02/23 10:30:16;;;;;;;26.23;16.23;;;9.10;99.90;;;;;;465857;253;27990;-81
2023/02/23 10:32:18;;;;;;;19.80;14.43;;;9.20;99.90;;;;;;466154;255;28087;-82
2023/02/23 10:34:19;;;;;;;23.63;15.17;;;9.20;99.90;;;;;;466204;255;27800;-82
2023/02/23 10:36:20;;;;;;;22.27;15.73;;;9.30;99.90;;;;;;466202;255;28586;-83
2023/02/23 10:38:21;;;;;;;24.60;15.83;;;9.30;99.90;;;;;;466238;255;28688;-83
2023/02/23 10:40:23;;;;;;;25.13;17.10;;;9.30;99.90;;;;;;466233;255;28596;-82
2023/02/23 10:42:27;;;;;;;22.67;14.77;;;9.50;99.90;;;;;;466225;255;27582;-82
2023/02/23 10:44:25;;;;;;;22.20;14.50;;;9.60;99.90;;;;;;466204;255;28202;-82
2023/02/23 10:46:26;;;;;;;21.73;14.57;;;9.80;99.90;;;;;;466247;255;28143;-81
2023/02/23 10:48:27;;;;;;;23.10;15.73;;;9.90;99.90;;;;;;466261;255;28090;-81
2023/02/23 10:50:29;;;;;;;19.13;13.40;;;9.90;99.90;;;;;;466528;254;28158;-83
2023/02/23 10:52:30;;;;;;;24.50;15.83;;;10.00;99.90;;;;;;466794;253;27957;-82
2023/02/23 10:54:31;;;;;;;25.50;15.90;;;10.10;99.90;;;;;;466195;255;28754;-81
2023/02/23 10:56:33;;;;;;;23.37;16.40;;;10.20;99.90;;;;;;466200;255;28518;-82
2023/02/23 10:58:34;;;;;;;19.27;14.47;;;10.20;99.90;;;;;;466151;255;28286;-82
2023/02/23 11:00:35;;;;;;;21.60;16.03;;;10.30;99.90;;;;;;466219;255;27919;-83
2023/02/23 11:02:36;;;;;;;21.90;15.00;;;10.30;99.90;;;;;;466056;255;28109;-83
2023/02/23 11:04:38;;;;;;;22.10;15.33;;;10.40;99.90;;;;;;466201;255;28229;-81
2023/02/23 11:06:39;;;;;;;21.30;15.80;;;10.30;99.90;;;;;;466273;255;28089;-82
2023/02/23 11:08:40;;;;;;;26.43;16.27;;;10.40;99.90;;;;;;466256;255;28752;-82
2023/02/23 11:10:41;;;;;;;22.13;15.47;;;10.50;99.90;;;;;;466212;255;28823;-82
2023/02/23 11:12:42;;;;;;;23.30;16.27;;;10.40;99.90;;;;;;466087;255;28164;-82
2023/02/23 11:14:44;;;;;;;18.33;14.07;;;10.50;99.90;;;;;;466220;253;28285;-82
2023/02/23 11:16:45;;;;;;;23.13;14.70;;;10.70;99.90;;;;;;466220;255;27850;-83
2023/02/23 11:18:47;;;;;;;18.90;13.67;;;10.70;99.90;;;;;;466229;255;28354;-81
2023/02/23 11:20:47;;;;;;;18.20;14.40;;;10.70;99.90;;;;;;466257;255;28384;-82
2023/02/23 11:22:51;;;;;;;19.40;14.50;;;10.80;99.90;;;;;;466256;255;28933;-82
2023/02/23 11:24:51;;;;;;;18.57;14.37;;;10.80;99.90;;;;;;466186;255;29669;-82
2023/02/23 11:26:51;;;;;;;22.10;14.70;;;10.80;99.90;;;;;;466196;254;28349;-83
2023/02/23 11:28:52;;;;;;;18.53;13.67;;;10.90;99.90;;;;;;466225;255;28318;-82
2023/02/23 11:30:54;;;;;;;18.00;13.60;;;10.90;99.90;;;;;;466263;255;28292;-82
2023/02/23 11:32:55;;;;;;;20.43;15.00;;;10.90;99.90;;;;;;466179;255;28454;-83
2023/02/23 11:34:57;;;;;;;19.50;13.70;;;10.90;99.90;;;;;;466230;255;28289;-82
2023/02/23 11:36:58;;;;;;;22.30;13.80;;;10.90;99.90;;;;;;466217;255;28881;-82
2023/02/23 11:38:59;;;;;;;21.10;13.53;;;11.00;99.90;;;;;;466269;255;29071;-82
2023/02/23 11:41:00;;;;;;;19.00;12.73;;;11.10;99.90;;;;;;466257;255;28452;-83